Home > Products > Valid Products > TAF

000
FTUS43 KLMK 241700
TAFBWG
TAF
KBWG 241734Z 2418/2518 17009KT P6SM SCT150 BKN250
     FM250400 18013G20KT 4SM TSRA BKN050CB
     FM250700 19013KT P6SM BKN030
     FM250900 22013KT P6SM VCTS BKN025CB
     FM251200 24013G19KT P6SM BKN030
     FM251500 28014G23KT P6SM SCT040=



000
FTUS43 KLMK 241700
TAFLEX
TAF
KLEX 241734Z 2418/2518 12009KT P6SM FEW120 BKN250
     FM250700 18013G20KT 5SM SHRA VCTS BKN050CB
     FM251000 20014KT P6SM BKN030
     FM251300 23014KT P6SM VCTS BKN025CB
     FM251600 28017G25KT P6SM BKN035=



000
FTUS43 KLMK 241700
TAFSDF
TAF
KSDF 241734Z 2418/2524 14012KT P6SM SCT150 BKN250
     FM250600 18014G22KT 4SM TSRA BKN050CB
     FM250900 20014KT P6SM BKN030
     FM251100 22014KT P6SM VCTS BKN025CB
     FM251400 28017G25KT P6SM BKN035
     FM251900 29016G23KT P6SM SCT050=



000
FTUS43 KLMK 241100
TAFLEX
TAF
KLEX 241120Z 2412/2512 07005KT P6SM BKN150
     FM241400 12008KT P6SM BKN120
     FM241900 16010KT P6SM SCT120 BKN250
     FM250100 15008KT P6SM BKN050 BKN120
     FM250700 18014KT P6SM VCSH BKN035=



000
FTUS43 KLMK 241100
TAFSDF
TAF
KSDF 241120Z 2412/2518 14008KT P6SM BKN120
     FM241900 16010KT P6SM SCT120 BKN250
     FM250500 18013KT P6SM VCSH BKN035 BKN120
     FM251200 22015KT P6SM VCSH BKN025
     FM251500 28015KT P6SM BKN030=



000
FTUS43 KLMK 241100
TAFBWG
TAF
KBWG 241120Z 2412/2512 15008KT P6SM BKN120
     FM241800 18011G18KT P6SM SCT120 BKN250
     FM242300 16008KT P6SM BKN050 BKN120
     FM250500 20012KT P6SM VCSH BKN025=



000
FTUS43 KLMK 240500
TAFBWG
TAF
KBWG 240520Z 2406/2506 07005KT P6SM SCT150
     FM241400 15009KT P6SM BKN120
     FM241800 18011G17KT P6SM SCT120 BKN250
     FM242300 16008KT P6SM BKN050 BKN120=



000
FTUS43 KLMK 240500
TAFLEX
TAF
KLEX 240520Z 2406/2506 07005KT P6SM BKN150
     FM241400 12008KT P6SM BKN120
     FM241900 16010KT P6SM SCT120 BKN250
     FM250100 15008KT P6SM BKN050 BKN120=



000
FTUS43 KLMK 240500
TAFSDF
TAF
KSDF 240520Z 2406/2512 07005KT P6SM BKN150
     FM241400 14008KT P6SM BKN120
     FM241900 16010KT P6SM SCT120 BKN250
     FM250500 16012KT P6SM VCSH BKN040 BKN120=



000
FTUS43 KLMK 232300
TAFLEX
TAF
KLEX 232328Z 2400/2424 VRB04KT P6SM SCT150
     FM241400 12008KT P6SM BKN150
     FM241900 17010KT P6SM SCT150 BKN250=



000
FTUS43 KLMK 232300
TAFSDF
TAF
KSDF 232328Z 2400/2506 VRB04KT P6SM SCT150
     FM241400 12008KT P6SM BKN120
     FM241900 17010KT P6SM SCT120 BKN250=



000
FTUS43 KLMK 232300
TAFBWG
TAF
KBWG 232328Z 2400/2424 VRB03KT P6SM SCT150
     FM241400 15006KT P6SM BKN100
     FM241800 18011G17KT P6SM SCT100 BKN250=



000
FTUS43 KLMK 231700
TAFSDF
TAF
KSDF 231720Z 2318/2424 02006KT P6SM FEW250
     FM240200 08004KT P6SM BKN120
     FM241400 15008KT P6SM BKN150=



000
FTUS43 KLMK 231700
TAFLEX
TAF
KLEX 231720Z 2318/2418 02006KT P6SM SKC
     FM240200 08004KT P6SM BKN120
     FM241400 15008KT P6SM BKN150=



000
FTUS43 KLMK 231700
TAFBWG
TAF
KBWG 231720Z 2318/2418 04006KT P6SM SKC
     FM240200 00000KT P6SM SCT150
     FM241400 15006KT P6SM BKN100=



000
FTUS43 KLMK 231100
TAFSDF
TAF
KSDF 231126Z 2312/2418 02006KT P6SM SKC
     FM240000 08004KT P6SM BKN120
     FM241400 15008KT P6SM BKN250=



000
FTUS43 KLMK 231100
TAFLEX
TAF
KLEX 231126Z 2312/2412 02006KT P6SM SKC
     FM240200 08004KT P6SM BKN120=



000
FTUS43 KLMK 231100
TAFBWG
TAF
KBWG 231126Z 2312/2412 00000KT P6SM SKC
     FM231400 06006KT P6SM SKC
     FM240200 00000KT P6SM SCT150=



000
FTUS43 KLMK 230500
TAFSDF
TAF
KSDF 230520Z 2306/2412 02006KT P6SM SKC
     FM240000 08004KT P6SM BKN120=



000
FTUS43 KLMK 230500
TAFBWG
TAF
KBWG 230520Z 2306/2406 00000KT P6SM SKC
     FM231400 06006KT P6SM SKC=



000
FTUS43 KLMK 230500
TAFLEX
TAF
KLEX 230520Z 2306/2406 03006KT P6SM SKC=



000
FTUS43 KLMK 230100 AAA
TAFSDF
TAF AMD
KSDF 230153Z 2302/2406 02007KT P6SM SKC
     FM231500 02006KT P6SM SCT250=



000
FTUS43 KLMK 222300
TAFLEX
TAF
KLEX 222320Z 2300/2324 33012G18KT P6SM SKC
     FM230100 35005KT P6SM SKC
     FM231400 02005KT P6SM SKC=



000
FTUS43 KLMK 222300
TAFSDF
TAF
KSDF 222320Z 2300/2406 34012G17KT P6SM SKC
     FM230100 35006KT P6SM SKC
     FM231500 02006KT P6SM SCT250=



000
FTUS43 KLMK 222300
TAFBWG
TAF
KBWG 222320Z 2300/2324 32009KT P6SM SKC
     FM230500 02005KT P6SM SKC=



000
FTUS43 KLMK 222200 AAB
TAFSDF
TAF AMD
KSDF 222201Z 2222/2324 34012G17KT P6SM SKC
     FM230100 35006KT P6SM SKC
     FM231500 02006KT P6SM SCT250=



000
FTUS43 KLMK 222000 AAA
TAFSDF
TAF AMD
KSDF 222021Z 2220/2324 32012G17KT P6SM SKC
     FM230100 35006KT P6SM SKC
     FM231500 02006KT P6SM SCT250=



000
FTUS43 KLMK 222000 AAA
TAFBWG
TAF AMD
KBWG 222007Z 2220/2318 32012G18KT P6SM SCT040
     FM222200 34010G16KT P6SM SKC
     FM222300 35005KT P6SM SKC=



000
FTUS43 KLMK 222000 AAA
TAFLEX
TAF AMD
KLEX 222006Z 2220/2318 31012G18KT P6SM FEW045
     FM230100 35005KT P6SM SKC=



000
FTUS43 KLMK 221700
TAFLEX
TAF
KLEX 221720Z 2218/2318 31010KT P6SM FEW021 BKN035
     FM222100 31012G17KT P6SM SKC
     FM230100 35005KT P6SM SKC=



000
FTUS43 KLMK 221700
TAFBWG
TAF
KBWG 221720Z 2218/2318 33007KT P6SM SCT035
     FM222100 34010G16KT P6SM SKC
     FM222300 35005KT P6SM SKC=



000
FTUS43 KLMK 221700
TAFSDF
TAF
KSDF 221720Z 2218/2324 34012G18KT P6SM SCT030 BKN040
     FM221900 32012G17KT P6SM SKC
     FM230100 35006KT P6SM SKC
     FM231500 02006KT P6SM SCT250=



000
FTUS43 KLMK 221400 AAA
TAFSDF
TAF AMD
KSDF 221458Z 2215/2318 31010KT P6SM BKN017
     FM221700 34012G18KT P6SM SCT030
     FM230100 35006KT P6SM SKC=



000
FTUS43 KLMK 221400 AAA
TAFLEX
TAF AMD
KLEX 221458Z 2215/2312 30008KT P6SM BKN016
     FM221800 33012G18KT P6SM SCT030
     FM230000 35005KT P6SM SKC=



000
FTUS43 KLMK 221200 AAA
TAFBWG
TAF AMD
KBWG 221248Z 2213/2312 30005KT P6SM VCSH BKN014
     FM221600 32010KT P6SM BKN035
     FM222000 34010G16KT P6SM SKC
     FM222300 35005KT P6SM SKC=



000
FTUS43 KLMK 221100
TAFLEX
TAF
KLEX 221128Z 2212/2312 23006KT P6SM VCSH BKN035
     FM221400 28008KT P6SM BKN022
     FM221800 33012G18KT P6SM SCT030
     FM230000 35005KT P6SM SKC=



000
FTUS43 KLMK 221100
TAFBWG
TAF
KBWG 221128Z 2212/2312 25005KT P6SM VCSH BKN035
     FM221300 30005KT P6SM VCSH BKN022
     FM221600 32010KT P6SM BKN035
     FM222000 34010G16KT P6SM SKC
     FM222300 35005KT P6SM SKC=



000
FTUS43 KLMK 221100
TAFSDF
TAF
KSDF 221128Z 2212/2318 26006KT P6SM VCSH OVC060
     FM221300 31010KT P6SM BKN024
     FM221700 34012G18KT P6SM SCT030
     FM230100 35006KT P6SM SKC=



000
FTUS43 KLMK 220900 AAA
TAFBWG
TAF AMD
KBWG 220945Z 2210/2306 25005KT P6SM VCSH BKN070
     FM221200 28005KT 5SM BR VCSH BKN015
     FM221500 32010KT P6SM BKN035
     FM222000 34010G16KT P6SM SKC
     FM230000 33006KT P6SM SKC=



000
FTUS43 KLMK 220900 AAA
TAFSDF
TAF AMD
KSDF 220943Z 2210/2312 26006KT P6SM VCSH OVC060
     FM221300 31010KT P6SM BKN024
     FM221700 34012G18KT P6SM SCT030
     FM230100 34006KT P6SM SKC=



000
FTUS43 KLMK 220500
TAFLEX
TAF
KLEX 220524Z 2206/2306 24006KT P6SM VCSH BKN080
     FM220900 26008KT P6SM VCSH BKN035
     FM221400 32010KT P6SM BKN015
     FM221900 33012G18KT P6SM SCT030
     FM230000 33005KT P6SM SKC=



000
FTUS43 KLMK 220500
TAFBWG
TAF
KBWG 220524Z 2206/2306 24007KT P6SM VCSH BKN070
     FM220900 26005KT 5SM BR VCSH BKN025
     FM221400 32010KT P6SM BKN015
     FM222000 34010KT P6SM SCT030
     FM230000 33006KT P6SM SKC=



000
FTUS43 KLMK 220500
TAFSDF
TAF
KSDF 220524Z 2206/2312 22005KT P6SM VCSH OVC060
     FM220900 26007KT P6SM VCSH BKN022
     FM221300 31012KT P6SM BKN017
     FM221700 34012G18KT P6SM SCT030
     FM230100 34006KT P6SM SKC=



000
FTUS43 KLMK 212300
TAFBWG
TAF
KBWG 212320Z 2200/2224 24007KT P6SM VCSH BKN050 OVC100
     FM221000 24005KT 4SM BR VCSH BKN015
     FM221500 30010KT P6SM BKN020=



000
FTUS43 KLMK 212300
TAFSDF
TAF
KSDF 212320Z 2200/2306 24008KT P6SM BKN060 OVC100
     FM220100 22008KT P6SM VCSH BKN050 OVC100
     FM221000 26008KT 5SM BR VCSH BKN015
     FM221200 31010KT P6SM BKN015
     FM221800 34015G20KT P6SM SCT030=



000
FTUS43 KLMK 212300
TAFLEX
TAF
KLEX 212320Z 2200/2224 21008KT P6SM BKN150
     FM220300 21006KT P6SM VCSH BKN050
     FM221100 26008KT 5SM BR VCSH BKN015
     FM221400 32010KT P6SM BKN015
     FM222000 33012G18KT P6SM SCT030=



    US Dept of Commerce
    National Oceanic and Atmospheric Administration
    National Weather Service
    1325 East West Highway
    Silver Spring, MD 20910
    Page Author: NWS Internet Services Team
Disclaimer
Information Quality
Credits
Glossary
Privacy Policy
Freedom of Information Act (FOIA)
About Us
Career Opportunities